sensor_id;sensor_type;location;lat;lon;timestamp;P1;durP1;ratioP1;P2;durP2;ratioP2
46729;SDS011;32476;50.002;11.854;2023-07-20T00:01:27;5.43;;;3.00;;
46729;SDS011;32476;50.002;11.854;2023-07-20T00:03:53;6.13;;;2.83;;
46729;SDS011;32476;50.002;11.854;2023-07-20T00:06:24;6.37;;;2.97;;
46729;SDS011;32476;50.002;11.854;2023-07-20T00:08:53;3.63;;;2.63;;
46729;SDS011;32476;50.002;11.854;2023-07-20T00:11:26;5.53;;;2.63;;
46729;SDS011;32476;50.002;11.854;2023-07-20T00:13:52;9.07;;;2.77;;
46729;SDS011;32476;50.002;11.854;2023-07-20T00:16:19;5.47;;;3.30;;
46729;SDS011;32476;50.002;11.854;2023-07-20T00:18:46;7.87;;;3.00;;
46729;SDS011;32476;50.002;11.854;2023-07-20T00:21:12;5.60;;;2.87;;
46729;SDS011;32476;50.002;11.854;2023-07-20T00:23:38;5.03;;;2.73;;
46729;SDS011;32476;50.002;11.854;2023-07-20T00:26:12;7.30;;;3.40;;
46729;SDS011;32476;50.002;11.854;2023-07-20T00:28:38;7.07;;;2.80;;
46729;SDS011;32476;50.002;11.854;2023-07-20T00:31:04;6.77;;;2.83;;
46729;SDS011;32476;50.002;11.854;2023-07-20T00:33:31;5.17;;;3.40;;
46729;SDS011;32476;50.002;11.854;2023-07-20T00:35:57;7.07;;;3.50;;
46729;SDS011;32476;50.002;11.854;2023-07-20T00:38:23;5.53;;;2.73;;
46729;SDS011;32476;50.002;11.854;2023-07-20T00:40:51;5.43;;;2.97;;
46729;SDS011;32476;50.002;11.854;2023-07-20T00:43:17;6.93;;;3.30;;
46729;SDS011;32476;50.002;11.854;2023-07-20T00:45:43;3.73;;;2.93;;
46729;SDS011;32476;50.002;11.854;2023-07-20T00:48:11;7.57;;;3.17;;
46729;SDS011;32476;50.002;11.854;2023-07-20T00:50:39;5.17;;;3.33;;
46729;SDS011;32476;50.002;11.854;2023-07-20T00:53:06;3.93;;;3.00;;
46729;SDS011;32476;50.002;11.854;2023-07-20T00:55:34;10.53;;;3.03;;
46729;SDS011;32476;50.002;11.854;2023-07-20T00:58:00;4.87;;;3.00;;
46729;SDS011;32476;50.002;11.854;2023-07-20T01:00:26;7.13;;;3.70;;
46729;SDS011;32476;50.002;11.854;2023-07-20T01:02:54;5.50;;;3.60;;
46729;SDS011;32476;50.002;11.854;2023-07-20T01:05:20;5.63;;;3.20;;
46729;SDS011;32476;50.002;11.854;2023-07-20T01:08:07;4.60;;;2.80;;
46729;SDS011;32476;50.002;11.854;2023-07-20T01:10:53;7.87;;;3.60;;
46729;SDS011;32476;50.002;11.854;2023-07-20T01:13:27;6.67;;;3.47;;
46729;SDS011;32476;50.002;11.854;2023-07-20T01:16:00;9.13;;;3.77;;
46729;SDS011;32476;50.002;11.854;2023-07-20T01:18:28;5.70;;;4.13;;
46729;SDS011;32476;50.002;11.854;2023-07-20T01:20:56;7.77;;;3.83;;
46729;SDS011;32476;50.002;11.854;2023-07-20T01:30:27;8.80;;;3.77;;
46729;SDS011;32476;50.002;11.854;2023-07-20T01:33:09;5.50;;;3.27;;
46729;SDS011;32476;50.002;11.854;2023-07-20T01:35:40;5.33;;;3.47;;
46729;SDS011;32476;50.002;11.854;2023-07-20T01:38:09;7.83;;;3.47;;
46729;SDS011;32476;50.002;11.854;2023-07-20T01:40:37;4.83;;;3.20;;
46729;SDS011;32476;50.002;11.854;2023-07-20T01:43:07;5.10;;;3.17;;
46729;SDS011;32476;50.002;11.854;2023-07-20T01:45:33;8.53;;;3.30;;
46729;SDS011;32476;50.002;11.854;2023-07-20T01:47:59;6.67;;;3.60;;
46729;SDS011;32476;50.002;11.854;2023-07-20T01:50:26;6.70;;;3.57;;
46729;SDS011;32476;50.002;11.854;2023-07-20T01:52:52;7.87;;;3.47;;
46729;SDS011;32476;50.002;11.854;2023-07-20T01:55:18;7.10;;;3.67;;
46729;SDS011;32476;50.002;11.854;2023-07-20T01:57:46;5.87;;;3.63;;
46729;SDS011;32476;50.002;11.854;2023-07-20T02:00:12;6.43;;;3.63;;
46729;SDS011;32476;50.002;11.854;2023-07-20T02:02:38;7.83;;;4.00;;
46729;SDS011;32476;50.002;11.854;2023-07-20T02:05:06;5.83;;;3.43;;
46729;SDS011;32476;50.002;11.854;2023-07-20T02:07:32;6.13;;;3.40;;
46729;SDS011;32476;50.002;11.854;2023-07-20T02:09:58;5.17;;;3.77;;
46729;SDS011;32476;50.002;11.854;2023-07-20T02:12:26;7.60;;;4.10;;
46729;SDS011;32476;50.002;11.854;2023-07-20T02:14:52;5.83;;;3.90;;
46729;SDS011;32476;50.002;11.854;2023-07-20T02:17:18;8.83;;;3.97;;
46729;SDS011;32476;50.002;11.854;2023-07-20T02:19:45;7.43;;;3.60;;
46729;SDS011;32476;50.002;11.854;2023-07-20T02:22:14;4.93;;;3.40;;
46729;SDS011;32476;50.002;11.854;2023-07-20T02:24:42;7.00;;;3.60;;
46729;SDS011;32476;50.002;11.854;2023-07-20T02:27:09;9.33;;;4.37;;
46729;SDS011;32476;50.002;11.854;2023-07-20T02:29:35;5.20;;;4.00;;
46729;SDS011;32476;50.002;11.854;2023-07-20T02:32:01;7.73;;;4.17;;
46729;SDS011;32476;50.002;11.854;2023-07-20T02:34:29;5.67;;;3.60;;
46729;SDS011;32476;50.002;11.854;2023-07-20T02:36:55;5.60;;;3.47;;
46729;SDS011;32476;50.002;11.854;2023-07-20T02:39:29;9.47;;;4.27;;
46729;SDS011;32476;50.002;11.854;2023-07-20T02:41:57;5.53;;;3.63;;
46729;SDS011;32476;50.002;11.854;2023-07-20T02:44:22;5.17;;;3.50;;
46729;SDS011;32476;50.002;11.854;2023-07-20T02:46:49;6.57;;;4.03;;
46729;SDS011;32476;50.002;11.854;2023-07-20T02:49:16;7.57;;;3.57;;
46729;SDS011;32476;50.002;11.854;2023-07-20T02:51:42;5.37;;;3.60;;
46729;SDS011;32476;50.002;11.854;2023-07-20T02:54:08;6.73;;;3.53;;
46729;SDS011;32476;50.002;11.854;2023-07-20T02:56:35;7.00;;;3.87;;
46729;SDS011;32476;50.002;11.854;2023-07-20T02:59:01;5.80;;;3.70;;
46729;SDS011;32476;50.002;11.854;2023-07-20T03:01:27;6.43;;;3.90;;
46729;SDS011;32476;50.002;11.854;2023-07-20T03:03:55;7.67;;;3.70;;
46729;SDS011;32476;50.002;11.854;2023-07-20T03:06:21;9.53;;;4.03;;
46729;SDS011;32476;50.002;11.854;2023-07-20T03:08:47;6.73;;;4.10;;
46729;SDS011;32476;50.002;11.854;2023-07-20T03:11:18;12.87;;;4.27;;
46729;SDS011;32476;50.002;11.854;2023-07-20T03:13:45;6.53;;;3.70;;
46729;SDS011;32476;50.002;11.854;2023-07-20T03:16:13;5.47;;;3.60;;
46729;SDS011;32476;50.002;11.854;2023-07-20T03:18:44;6.40;;;3.40;;
46729;SDS011;32476;50.002;11.854;2023-07-20T03:21:11;5.07;;;3.57;;
46729;SDS011;32476;50.002;11.854;2023-07-20T03:23:38;6.50;;;3.53;;
46729;SDS011;32476;50.002;11.854;2023-07-20T03:26:06;10.30;;;4.43;;
46729;SDS011;32476;50.002;11.854;2023-07-20T03:28:34;9.20;;;3.80;;
46729;SDS011;32476;50.002;11.854;2023-07-20T03:31:01;6.40;;;3.47;;
46729;SDS011;32476;50.002;11.854;2023-07-20T03:33:29;7.60;;;3.07;;
46729;SDS011;32476;50.002;11.854;2023-07-20T03:35:56;5.53;;;3.07;;
46729;SDS011;32476;50.002;11.854;2023-07-20T03:38:22;4.80;;;3.27;;
46729;SDS011;32476;50.002;11.854;2023-07-20T03:40:51;6.47;;;3.60;;
46729;SDS011;32476;50.002;11.854;2023-07-20T03:43:19;7.40;;;4.40;;
46729;SDS011;32476;50.002;11.854;2023-07-20T03:45:46;8.27;;;4.27;;
46729;SDS011;32476;50.002;11.854;2023-07-20T03:48:15;7.87;;;4.50;;
46729;SDS011;32476;50.002;11.854;2023-07-20T03:50:44;10.47;;;4.53;;
46729;SDS011;32476;50.002;11.854;2023-07-20T03:53:16;7.80;;;4.93;;
46729;SDS011;32476;50.002;11.854;2023-07-20T03:55:46;8.77;;;4.47;;
46729;SDS011;32476;50.002;11.854;2023-07-20T03:58:16;7.20;;;4.10;;
46729;SDS011;32476;50.002;11.854;2023-07-20T04:00:46;8.93;;;4.90;;
46729;SDS011;32476;50.002;11.854;2023-07-20T04:03:13;8.00;;;4.93;;
46729;SDS011;32476;50.002;11.854;2023-07-20T04:05:41;8.57;;;4.93;;
46729;SDS011;32476;50.002;11.854;2023-07-20T04:08:09;7.17;;;4.50;;
46729;SDS011;32476;50.002;11.854;2023-07-20T04:10:36;10.10;;;4.83;;
46729;SDS011;32476;50.002;11.854;2023-07-20T04:13:04;6.70;;;4.93;;
46729;SDS011;32476;50.002;11.854;2023-07-20T04:15:30;9.03;;;4.70;;
46729;SDS011;32476;50.002;11.854;2023-07-20T04:17:56;7.93;;;4.50;;
46729;SDS011;32476;50.002;11.854;2023-07-20T04:20:24;10.60;;;4.80;;
46729;SDS011;32476;50.002;11.854;2023-07-20T04:22:50;8.10;;;5.13;;
46729;SDS011;32476;50.002;11.854;2023-07-20T04:25:17;7.87;;;4.97;;
46729;SDS011;32476;50.002;11.854;2023-07-20T04:27:45;6.97;;;5.33;;
46729;SDS011;32476;50.002;11.854;2023-07-20T04:30:11;10.77;;;5.53;;
46729;SDS011;32476;50.002;11.854;2023-07-20T04:32:38;10.23;;;5.37;;
46729;SDS011;32476;50.002;11.854;2023-07-20T04:38:10;7.27;;;5.07;;
46729;SDS011;32476;50.002;11.854;2023-07-20T04:40:38;10.73;;;5.80;;
46729;SDS011;32476;50.002;11.854;2023-07-20T04:43:04;10.13;;;5.70;;
46729;SDS011;32476;50.002;11.854;2023-07-20T04:45:30;10.40;;;5.93;;
46729;SDS011;32476;50.002;11.854;2023-07-20T04:47:58;12.23;;;5.00;;
46729;SDS011;32476;50.002;11.854;2023-07-20T04:50:24;11.77;;;6.10;;
46729;SDS011;32476;50.002;11.854;2023-07-20T04:52:50;9.87;;;6.37;;
46729;SDS011;32476;50.002;11.854;2023-07-20T04:55:18;8.43;;;5.70;;
46729;SDS011;32476;50.002;11.854;2023-07-20T04:57:45;10.43;;;5.50;;
46729;SDS011;32476;50.002;11.854;2023-07-20T05:00:11;13.10;;;7.23;;
46729;SDS011;32476;50.002;11.854;2023-07-20T05:02:41;9.07;;;5.67;;
46729;SDS011;32476;50.002;11.854;2023-07-20T05:05:07;11.80;;;6.77;;
46729;SDS011;32476;50.002;11.854;2023-07-20T05:07:33;8.50;;;6.00;;
46729;SDS011;32476;50.002;11.854;2023-07-20T05:10:01;10.77;;;6.10;;
46729;SDS011;32476;50.002;11.854;2023-07-20T05:12:27;9.40;;;5.83;;
46729;SDS011;32476;50.002;11.854;2023-07-20T05:14:53;8.40;;;5.00;;
46729;SDS011;32476;50.002;11.854;2023-07-20T05:17:20;7.87;;;5.40;;
46729;SDS011;32476;50.002;11.854;2023-07-20T05:19:46;7.97;;;5.47;;
46729;SDS011;32476;50.002;11.854;2023-07-20T05:22:13;8.47;;;5.13;;
46729;SDS011;32476;50.002;11.854;2023-07-20T05:24:41;9.30;;;4.90;;
46729;SDS011;32476;50.002;11.854;2023-07-20T05:27:07;7.53;;;5.20;;
46729;SDS011;32476;50.002;11.854;2023-07-20T05:29:33;9.20;;;5.20;;
46729;SDS011;32476;50.002;11.854;2023-07-20T05:32:00;10.70;;;5.40;;
46729;SDS011;32476;50.002;11.854;2023-07-20T05:34:26;8.70;;;5.10;;
46729;SDS011;32476;50.002;11.854;2023-07-20T05:36:52;7.10;;;5.00;;
46729;SDS011;32476;50.002;11.854;2023-07-20T05:39:19;8.47;;;5.00;;
46729;SDS011;32476;50.002;11.854;2023-07-20T05:41:45;8.37;;;5.73;;
46729;SDS011;32476;50.002;11.854;2023-07-20T05:44:11;9.57;;;5.93;;
46729;SDS011;32476;50.002;11.854;2023-07-20T05:46:39;7.30;;;5.87;;
46729;SDS011;32476;50.002;11.854;2023-07-20T05:49:05;10.93;;;5.50;;
46729;SDS011;32476;50.002;11.854;2023-07-20T05:51:31;10.73;;;5.83;;
46729;SDS011;32476;50.002;11.854;2023-07-20T05:53:59;11.03;;;5.23;;
46729;SDS011;32476;50.002;11.854;2023-07-20T05:56:25;10.03;;;5.97;;
46729;SDS011;32476;50.002;11.854;2023-07-20T05:58:51;9.87;;;5.97;;
46729;SDS011;32476;50.002;11.854;2023-07-20T06:01:18;8.97;;;5.70;;
46729;SDS011;32476;50.002;11.854;2023-07-20T06:03:44;9.70;;;5.33;;
46729;SDS011;32476;50.002;11.854;2023-07-20T06:06:10;7.73;;;5.83;;
46729;SDS011;32476;50.002;11.854;2023-07-20T06:08:38;9.63;;;5.53;;
46729;SDS011;32476;50.002;11.854;2023-07-20T06:11:04;13.57;;;5.43;;
46729;SDS011;32476;50.002;11.854;2023-07-20T06:13:30;8.55;;;4.97;;
46729;SDS011;32476;50.002;11.854;2023-07-20T06:15:58;7.97;;;4.47;;
46729;SDS011;32476;50.002;11.854;2023-07-20T06:18:23;7.27;;;5.17;;
46729;SDS011;32476;50.002;11.854;2023-07-20T06:20:52;11.07;;;5.87;;
46729;SDS011;32476;50.002;11.854;2023-07-20T06:23:20;8.23;;;5.90;;
46729;SDS011;32476;50.002;11.854;2023-07-20T06:25:46;8.40;;;6.17;;
46729;SDS011;32476;50.002;11.854;2023-07-20T06:28:13;9.52;;;6.25;;
46729;SDS011;32476;50.002;11.854;2023-07-20T06:30:40;12.07;;;5.70;;
46729;SDS011;32476;50.002;11.854;2023-07-20T06:33:06;10.03;;;5.40;;
46729;SDS011;32476;50.002;11.854;2023-07-20T06:35:33;9.73;;;5.95;;
46729;SDS011;32476;50.002;11.854;2023-07-20T06:38:02;11.07;;;6.50;;
46729;SDS011;32476;50.002;11.854;2023-07-20T06:40:29;9.73;;;6.33;;
46729;SDS011;32476;50.002;11.854;2023-07-20T06:42:55;9.43;;;6.65;;
46729;SDS011;32476;50.002;11.854;2023-07-20T06:45:24;11.03;;;6.43;;
46729;SDS011;32476;50.002;11.854;2023-07-20T06:47:50;8.87;;;6.63;;
46729;SDS011;32476;50.002;11.854;2023-07-20T06:50:16;11.23;;;7.27;;
46729;SDS011;32476;50.002;11.854;2023-07-20T06:52:43;14.67;;;7.87;;
46729;SDS011;32476;50.002;11.854;2023-07-20T06:55:09;15.13;;;8.30;;
46729;SDS011;32476;50.002;11.854;2023-07-20T06:57:35;11.20;;;9.00;;
46729;SDS011;32476;50.002;11.854;2023-07-20T07:00:03;11.83;;;9.17;;
46729;SDS011;32476;50.002;11.854;2023-07-20T07:02:31;12.60;;;7.93;;
46729;SDS011;32476;50.002;11.854;2023-07-20T07:04:57;11.80;;;6.85;;
46729;SDS011;32476;50.002;11.854;2023-07-20T07:07:25;15.13;;;6.22;;
46729;SDS011;32476;50.002;11.854;2023-07-20T07:09:50;11.15;;;7.13;;
46729;SDS011;32476;50.002;11.854;2023-07-20T07:12:16;12.15;;;5.82;;
46729;SDS011;32476;50.002;11.854;2023-07-20T07:14:44;8.02;;;5.60;;
46729;SDS011;32476;50.002;11.854;2023-07-20T07:17:10;10.40;;;5.97;;
46729;SDS011;32476;50.002;11.854;2023-07-20T07:19:36;9.10;;;5.03;;
46729;SDS011;32476;50.002;11.854;2023-07-20T07:22:04;11.48;;;5.65;;
46729;SDS011;32476;50.002;11.854;2023-07-20T07:24:30;12.15;;;5.38;;
46729;SDS011;32476;50.002;11.854;2023-07-20T07:26:59;8.13;;;5.10;;
46729;SDS011;32476;50.002;11.854;2023-07-20T07:29:27;11.30;;;4.80;;
46729;SDS011;32476;50.002;11.854;2023-07-20T07:31:53;7.57;;;4.93;;
46729;SDS011;32476;50.002;11.854;2023-07-20T07:34:19;8.50;;;4.47;;
46729;SDS011;32476;50.002;11.854;2023-07-20T07:36:47;8.15;;;4.93;;
46729;SDS011;32476;50.002;11.854;2023-07-20T07:39:13;9.48;;;4.88;;
46729;SDS011;32476;50.002;11.854;2023-07-20T07:41:39;6.30;;;4.20;;
46729;SDS011;32476;50.002;11.854;2023-07-20T07:44:06;5.97;;;3.90;;
46729;SDS011;32476;50.002;11.854;2023-07-20T07:46:32;8.73;;;4.03;;
46729;SDS011;32476;50.002;11.854;2023-07-20T07:48:58;7.88;;;3.53;;
46729;SDS011;32476;50.002;11.854;2023-07-20T07:51:26;8.13;;;3.60;;
46729;SDS011;32476;50.002;11.854;2023-07-20T07:53:54;8.35;;;4.40;;
46729;SDS011;32476;50.002;11.854;2023-07-20T07:56:20;5.93;;;3.60;;
46729;SDS011;32476;50.002;11.854;2023-07-20T07:58:51;5.97;;;3.42;;
46729;SDS011;32476;50.002;11.854;2023-07-20T08:01:17;5.85;;;3.47;;
46729;SDS011;32476;50.002;11.854;2023-07-20T08:03:44;10.07;;;3.42;;
46729;SDS011;32476;50.002;11.854;2023-07-20T08:06:14;7.50;;;3.35;;
46729;SDS011;32476;50.002;11.854;2023-07-20T08:08:40;5.93;;;2.70;;
46729;SDS011;32476;50.002;11.854;2023-07-20T08:11:07;4.43;;;2.40;;
46729;SDS011;32476;50.002;11.854;2023-07-20T08:13:36;7.40;;;3.00;;
46729;SDS011;32476;50.002;11.854;2023-07-20T08:16:02;5.47;;;3.28;;
46729;SDS011;32476;50.002;11.854;2023-07-20T08:18:28;7.57;;;3.42;;
46729;SDS011;32476;50.002;11.854;2023-07-20T08:20:56;6.03;;;2.70;;
46729;SDS011;32476;50.002;11.854;2023-07-20T08:23:22;7.38;;;3.10;;
46729;SDS011;32476;50.002;11.854;2023-07-20T08:25:48;5.88;;;2.72;;
46729;SDS011;32476;50.002;11.854;2023-07-20T08:28:15;4.38;;;2.50;;
46729;SDS011;32476;50.002;11.854;2023-07-20T08:30:42;4.75;;;2.88;;
46729;SDS011;32476;50.002;11.854;2023-07-20T08:33:13;8.95;;;2.63;;
46729;SDS011;32476;50.002;11.854;2023-07-20T08:35:42;5.90;;;3.10;;
46729;SDS011;32476;50.002;11.854;2023-07-20T08:38:08;8.80;;;3.25;;
46729;SDS011;32476;50.002;11.854;2023-07-20T08:40:39;5.38;;;2.67;;
46729;SDS011;32476;50.002;11.854;2023-07-20T08:43:10;6.53;;;2.58;;
46729;SDS011;32476;50.002;11.854;2023-07-20T08:45:38;5.68;;;2.70;;
46729;SDS011;32476;50.002;11.854;2023-07-20T08:48:06;6.32;;;2.40;;
46729;SDS011;32476;50.002;11.854;2023-07-20T08:50:34;4.82;;;2.50;;
46729;SDS011;32476;50.002;11.854;2023-07-20T08:53:01;5.25;;;2.45;;
46729;SDS011;32476;50.002;11.854;2023-07-20T08:55:28;3.17;;;2.05;;
46729;SDS011;32476;50.002;11.854;2023-07-20T08:58:00;6.00;;;2.50;;
46729;SDS011;32476;50.002;11.854;2023-07-20T09:00:26;5.63;;;2.20;;
46729;SDS011;32476;50.002;11.854;2023-07-20T09:02:54;3.42;;;2.45;;
46729;SDS011;32476;50.002;11.854;2023-07-20T09:05:23;2.47;;;2.10;;
46729;SDS011;32476;50.002;11.854;2023-07-20T09:07:51;2.92;;;1.95;;
46729;SDS011;32476;50.002;11.854;2023-07-20T09:10:19;4.05;;;2.13;;
46729;SDS011;32476;50.002;11.854;2023-07-20T09:12:51;5.03;;;2.50;;
46729;SDS011;32476;50.002;11.854;2023-07-20T09:15:17;3.83;;;2.20;;
46729;SDS011;32476;50.002;11.854;2023-07-20T09:17:46;3.30;;;1.70;;
46729;SDS011;32476;50.002;11.854;2023-07-20T09:20:18;7.70;;;2.13;;
46729;SDS011;32476;50.002;11.854;2023-07-20T09:22:45;5.13;;;2.17;;
46729;SDS011;32476;50.002;11.854;2023-07-20T09:25:12;5.00;;;2.10;;
46729;SDS011;32476;50.002;11.854;2023-07-20T09:27:47;7.80;;;2.63;;
46729;SDS011;32476;50.002;11.854;2023-07-20T09:30:15;4.57;;;2.20;;
46729;SDS011;32476;50.002;11.854;2023-07-20T09:32:48;4.20;;;2.10;;
46729;SDS011;32476;50.002;11.854;2023-07-20T09:35:18;4.22;;;1.75;;
46729;SDS011;32476;50.002;11.854;2023-07-20T09:38:04;7.72;;;2.42;;
46729;SDS011;32476;50.002;11.854;2023-07-20T09:40:37;2.92;;;1.88;;
46729;SDS011;32476;50.002;11.854;2023-07-20T09:43:04;4.18;;;1.95;;
46729;SDS011;32476;50.002;11.854;2023-07-20T09:45:39;4.80;;;2.08;;
46729;SDS011;32476;50.002;11.854;2023-07-20T09:48:07;4.70;;;2.25;;
46729;SDS011;32476;50.002;11.854;2023-07-20T09:50:40;4.40;;;2.70;;
46729;SDS011;32476;50.002;11.854;2023-07-20T09:53:11;2.28;;;2.08;;
46729;SDS011;32476;50.002;11.854;2023-07-20T09:55:41;2.90;;;1.48;;
46729;SDS011;32476;50.002;11.854;2023-07-20T09:58:08;5.68;;;1.85;;
46729;SDS011;32476;50.002;11.854;2023-07-20T10:00:36;6.15;;;2.28;;
46729;SDS011;32476;50.002;11.854;2023-07-20T10:03:05;3.60;;;1.83;;
46729;SDS011;32476;50.002;11.854;2023-07-20T10:05:35;2.50;;;1.77;;
46729;SDS011;32476;50.002;11.854;2023-07-20T10:08:07;6.47;;;2.30;;
46729;SDS011;32476;50.002;11.854;2023-07-20T10:10:38;4.32;;;2.10;;
46729;SDS011;32476;50.002;11.854;2023-07-20T10:13:13;6.03;;;1.88;;
46729;SDS011;32476;50.002;11.854;2023-07-20T10:15:46;3.75;;;2.08;;
46729;SDS011;32476;50.002;11.854;2023-07-20T10:18:18;6.30;;;1.75;;
46729;SDS011;32476;50.002;11.854;2023-07-20T10:21:02;4.32;;;1.85;;
46729;SDS011;32476;50.002;11.854;2023-07-20T10:23:33;5.70;;;1.65;;
46729;SDS011;32476;50.002;11.854;2023-07-20T10:26:00;1.77;;;1.48;;
46729;SDS011;32476;50.002;11.854;2023-07-20T10:28:28;3.17;;;1.52;;
46729;SDS011;32476;50.002;11.854;2023-07-20T10:30:55;2.85;;;1.98;;
46729;SDS011;32476;50.002;11.854;2023-07-20T10:33:21;3.92;;;1.42;;
46729;SDS011;32476;50.002;11.854;2023-07-20T10:35:59;4.45;;;1.70;;
46729;SDS011;32476;50.002;11.854;2023-07-20T10:38:42;3.80;;;1.65;;
46729;SDS011;32476;50.002;11.854;2023-07-20T10:41:20;3.17;;;1.75;;
46729;SDS011;32476;50.002;11.854;2023-07-20T10:44:03;4.07;;;1.63;;
46729;SDS011;32476;50.002;11.854;2023-07-20T10:46:34;6.22;;;1.58;;
46729;SDS011;32476;50.002;11.854;2023-07-20T10:49:10;3.72;;;1.65;;
46729;SDS011;32476;50.002;11.854;2023-07-20T10:51:42;5.38;;;2.13;;
46729;SDS011;32476;50.002;11.854;2023-07-20T10:56:43;6.22;;;1.85;;
46729;SDS011;32476;50.002;11.854;2023-07-20T10:59:35;1.90;;;1.17;;
46729;SDS011;32476;50.002;11.854;2023-07-20T11:02:07;4.18;;;1.42;;
46729;SDS011;32476;50.002;11.854;2023-07-20T11:04:38;3.58;;;1.95;;
46729;SDS011;32476;50.002;11.854;2023-07-20T11:07:05;6.13;;;1.60;;
46729;SDS011;32476;50.002;11.854;2023-07-20T11:09:33;2.80;;;1.60;;
46729;SDS011;32476;50.002;11.854;2023-07-20T11:12:11;3.75;;;1.70;;
46729;SDS011;32476;50.002;11.854;2023-07-20T11:14:40;9.20;;;2.08;;
46729;SDS011;32476;50.002;11.854;2023-07-20T11:17:22;4.00;;;1.50;;
46729;SDS011;32476;50.002;11.854;2023-07-20T11:19:56;9.98;;;1.85;;
46729;SDS011;32476;50.002;11.854;2023-07-20T11:22:25;7.82;;;2.20;;
46729;SDS011;32476;50.002;11.854;2023-07-20T11:24:54;6.20;;;1.65;;
46729;SDS011;32476;50.002;11.854;2023-07-20T11:27:21;3.40;;;1.80;;
46729;SDS011;32476;50.002;11.854;2023-07-20T11:29:49;2.42;;;1.55;;
46729;SDS011;32476;50.002;11.854;2023-07-20T11:32:21;6.82;;;1.75;;
46729;SDS011;32476;50.002;11.854;2023-07-20T11:34:50;5.68;;;1.83;;
46729;SDS011;32476;50.002;11.854;2023-07-20T11:37:17;4.25;;;1.98;;
46729;SDS011;32476;50.002;11.854;2023-07-20T11:39:43;3.05;;;1.65;;
46729;SDS011;32476;50.002;11.854;2023-07-20T11:42:11;3.83;;;1.40;;
46729;SDS011;32476;50.002;11.854;2023-07-20T11:44:37;4.63;;;1.50;;
46729;SDS011;32476;50.002;11.854;2023-07-20T11:47:07;5.32;;;1.67;;
46729;SDS011;32476;50.002;11.854;2023-07-20T11:49:40;6.25;;;1.90;;
46729;SDS011;32476;50.002;11.854;2023-07-20T11:52:07;6.10;;;2.20;;
46729;SDS011;32476;50.002;11.854;2023-07-20T11:54:42;2.63;;;2.00;;
46729;SDS011;32476;50.002;11.854;2023-07-20T11:57:16;4.30;;;1.67;;
46729;SDS011;32476;50.002;11.854;2023-07-20T11:59:54;4.85;;;1.65;;
46729;SDS011;32476;50.002;11.854;2023-07-20T12:02:26;2.00;;;1.42;;
46729;SDS011;32476;50.002;11.854;2023-07-20T12:04:54;7.45;;;2.15;;
46729;SDS011;32476;50.002;11.854;2023-07-20T12:07:21;3.72;;;1.88;;
46729;SDS011;32476;50.002;11.854;2023-07-20T12:10:06;5.07;;;1.58;;
46729;SDS011;32476;50.002;11.854;2023-07-20T12:12:39;7.25;;;2.10;;
46729;SDS011;32476;50.002;11.854;2023-07-20T12:15:13;3.53;;;1.85;;
46729;SDS011;32476;50.002;11.854;2023-07-20T12:17:51;4.15;;;1.98;;
46729;SDS011;32476;50.002;11.854;2023-07-20T12:20:25;3.25;;;1.60;;
46729;SDS011;32476;50.002;11.854;2023-07-20T12:23:08;4.38;;;1.92;;
46729;SDS011;32476;50.002;11.854;2023-07-20T12:25:43;3.30;;;1.77;;
46729;SDS011;32476;50.002;11.854;2023-07-20T12:28:13;3.97;;;1.60;;
46729;SDS011;32476;50.002;11.854;2023-07-20T12:30:44;4.07;;;1.58;;
46729;SDS011;32476;50.002;11.854;2023-07-20T12:33:13;5.35;;;2.72;;
46729;SDS011;32476;50.002;11.854;2023-07-20T12:35:42;4.78;;;2.47;;
46729;SDS011;32476;50.002;11.854;2023-07-20T12:38:08;5.45;;;2.85;;
46729;SDS011;32476;50.002;11.854;2023-07-20T12:40:36;8.48;;;2.40;;
46729;SDS011;32476;50.002;11.854;2023-07-20T12:43:02;7.47;;;2.20;;
46729;SDS011;32476;50.002;11.854;2023-07-20T12:45:29;4.38;;;1.98;;
46729;SDS011;32476;50.002;11.854;2023-07-20T12:47:57;4.55;;;1.80;;
46729;SDS011;32476;50.002;11.854;2023-07-20T12:50:23;5.13;;;1.90;;
46729;SDS011;32476;50.002;11.854;2023-07-20T12:52:49;6.25;;;2.15;;
46729;SDS011;32476;50.002;11.854;2023-07-20T12:55:17;3.40;;;1.83;;
46729;SDS011;32476;50.002;11.854;2023-07-20T12:57:43;3.83;;;1.75;;
46729;SDS011;32476;50.002;11.854;2023-07-20T13:00:11;4.70;;;2.25;;
46729;SDS011;32476;50.002;11.854;2023-07-20T13:02:41;5.72;;;2.20;;
46729;SDS011;32476;50.002;11.854;2023-07-20T13:05:08;6.32;;;2.90;;
46729;SDS011;32476;50.002;11.854;2023-07-20T13:07:38;3.90;;;2.65;;
46729;SDS011;32476;50.002;11.854;2023-07-20T13:10:08;3.25;;;1.90;;
46729;SDS011;32476;50.002;11.854;2023-07-20T13:12:36;5.20;;;1.92;;
46729;SDS011;32476;50.002;11.854;2023-07-20T13:15:04;4.93;;;1.67;;
46729;SDS011;32476;50.002;11.854;2023-07-20T13:17:37;5.80;;;1.98;;
46729;SDS011;32476;50.002;11.854;2023-07-20T13:20:05;4.57;;;1.88;;
46729;SDS011;32476;50.002;11.854;2023-07-20T13:22:37;8.48;;;1.75;;
46729;SDS011;32476;50.002;11.854;2023-07-20T13:25:04;4.80;;;2.15;;
46729;SDS011;32476;50.002;11.854;2023-07-20T13:27:31;3.70;;;1.85;;
46729;SDS011;32476;50.002;11.854;2023-07-20T13:29:59;5.68;;;1.83;;
46729;SDS011;32476;50.002;11.854;2023-07-20T13:32:32;5.03;;;1.75;;
46729;SDS011;32476;50.002;11.854;2023-07-20T13:35:00;2.35;;;1.70;;
46729;SDS011;32476;50.002;11.854;2023-07-20T13:37:26;2.88;;;1.83;;
46729;SDS011;32476;50.002;11.854;2023-07-20T13:39:53;5.03;;;1.80;;
46729;SDS011;32476;50.002;11.854;2023-07-20T13:42:21;2.75;;;1.60;;
46729;SDS011;32476;50.002;11.854;2023-07-20T13:44:47;2.83;;;1.75;;
46729;SDS011;32476;50.002;11.854;2023-07-20T13:47:14;5.88;;;1.55;;
46729;SDS011;32476;50.002;11.854;2023-07-20T13:49:41;5.43;;;1.98;;
46729;SDS011;32476;50.002;11.854;2023-07-20T13:52:08;8.93;;;1.83;;
46729;SDS011;32476;50.002;11.854;2023-07-20T13:54:34;4.13;;;1.90;;
46729;SDS011;32476;50.002;11.854;2023-07-20T13:57:02;9.23;;;1.80;;
46729;SDS011;32476;50.002;11.854;2023-07-20T13:59:28;4.53;;;1.90;;
46729;SDS011;32476;50.002;11.854;2023-07-20T14:01:54;2.17;;;1.80;;
46729;SDS011;32476;50.002;11.854;2023-07-20T14:04:22;4.72;;;1.98;;
46729;SDS011;32476;50.002;11.854;2023-07-20T14:06:47;5.07;;;1.85;;
46729;SDS011;32476;50.002;11.854;2023-07-20T14:09:13;5.60;;;2.03;;
46729;SDS011;32476;50.002;11.854;2023-07-20T14:11:41;4.75;;;1.90;;
46729;SDS011;32476;50.002;11.854;2023-07-20T14:14:07;6.07;;;1.98;;
46729;SDS011;32476;50.002;11.854;2023-07-20T14:16:33;5.05;;;2.33;;
46729;SDS011;32476;50.002;11.854;2023-07-20T14:19:00;6.38;;;2.00;;
46729;SDS011;32476;50.002;11.854;2023-07-20T14:21:26;9.73;;;1.95;;
46729;SDS011;32476;50.002;11.854;2023-07-20T14:23:53;4.10;;;1.58;;
46729;SDS011;32476;50.002;11.854;2023-07-20T14:26:21;5.95;;;2.05;;
46729;SDS011;32476;50.002;11.854;2023-07-20T14:28:47;6.28;;;1.75;;
46729;SDS011;32476;50.002;11.854;2023-07-20T14:31:13;4.50;;;1.95;;
46729;SDS011;32476;50.002;11.854;2023-07-20T14:33:40;6.88;;;2.05;;
46729;SDS011;32476;50.002;11.854;2023-07-20T14:36:06;2.53;;;2.13;;
46729;SDS011;32476;50.002;11.854;2023-07-20T14:38:33;8.02;;;1.92;;
46729;SDS011;32476;50.002;11.854;2023-07-20T14:41:03;2.95;;;1.83;;
46729;SDS011;32476;50.002;11.854;2023-07-20T14:43:31;5.22;;;2.10;;
46729;SDS011;32476;50.002;11.854;2023-07-20T14:45:57;5.43;;;2.03;;
46729;SDS011;32476;50.002;11.854;2023-07-20T14:48:24;3.35;;;2.42;;
46729;SDS011;32476;50.002;11.854;2023-07-20T14:50:50;4.20;;;1.88;;
46729;SDS011;32476;50.002;11.854;2023-07-20T14:53:16;6.82;;;2.22;;